sensor_id;sensor_type;location;lat;lon;timestamp;temperature;humidity
674;DHT22;319;48.764;9.174;2024-01-27T00:02:24;6.30;99.90
674;DHT22;319;48.764;9.174;2024-01-27T00:04:51;6.20;99.90
674;DHT22;319;48.764;9.174;2024-01-27T00:07:19;6.20;99.90
674;DHT22;319;48.764;9.174;2024-01-27T00:09:46;6.20;99.90
674;DHT22;319;48.764;9.174;2024-01-27T00:12:12;6.20;99.90
674;DHT22;319;48.764;9.174;2024-01-27T00:14:39;6.20;99.90
674;DHT22;319;48.764;9.174;2024-01-27T00:17:06;6.10;99.90
674;DHT22;319;48.764;9.174;2024-01-27T00:19:32;6.10;99.90
674;DHT22;319;48.764;9.174;2024-01-27T00:21:59;6.00;99.90
674;DHT22;319;48.764;9.174;2024-01-27T00:24:27;5.90;99.90
674;DHT22;319;48.764;9.174;2024-01-27T00:26:54;5.90;99.90
674;DHT22;319;48.764;9.174;2024-01-27T00:29:21;5.90;99.90
674;DHT22;319;48.764;9.174;2024-01-27T00:31:48;5.90;99.90
674;DHT22;319;48.764;9.174;2024-01-27T00:34:16;5.90;99.90
674;DHT22;319;48.764;9.174;2024-01-27T00:36:43;5.80;99.90
674;DHT22;319;48.764;9.174;2024-01-27T00:39:14;5.70;99.90
674;DHT22;319;48.764;9.174;2024-01-27T00:41:42;5.80;99.90
674;DHT22;319;48.764;9.174;2024-01-27T00:44:09;5.70;99.90
674;DHT22;319;48.764;9.174;2024-01-27T00:46:36;5.70;99.90
674;DHT22;319;48.764;9.174;2024-01-27T00:49:03;5.70;99.90
674;DHT22;319;48.764;9.174;2024-01-27T00:51:30;5.70;99.90
674;DHT22;319;48.764;9.174;2024-01-27T00:53:57;5.60;99.90
674;DHT22;319;48.764;9.174;2024-01-27T00:56:23;5.70;99.90
674;DHT22;319;48.764;9.174;2024-01-27T00:58:51;5.70;99.90
674;DHT22;319;48.764;9.174;2024-01-27T01:01:18;5.60;99.90
674;DHT22;319;48.764;9.174;2024-01-27T01:03:45;5.60;99.90
674;DHT22;319;48.764;9.174;2024-01-27T01:06:12;5.60;99.90
674;DHT22;319;48.764;9.174;2024-01-27T01:08:38;5.50;99.90
674;DHT22;319;48.764;9.174;2024-01-27T01:11:05;5.50;99.90
674;DHT22;319;48.764;9.174;2024-01-27T01:13:32;5.40;99.90
674;DHT22;319;48.764;9.174;2024-01-27T01:16:00;5.30;99.90
674;DHT22;319;48.764;9.174;2024-01-27T01:18:28;5.40;99.90
674;DHT22;319;48.764;9.174;2024-01-27T01:20:55;5.30;99.90
674;DHT22;319;48.764;9.174;2024-01-27T01:23:22;5.30;99.90
674;DHT22;319;48.764;9.174;2024-01-27T01:25:49;5.30;99.90
674;DHT22;319;48.764;9.174;2024-01-27T01:28:15;5.30;99.90
674;DHT22;319;48.764;9.174;2024-01-27T01:30:42;5.40;99.90
674;DHT22;319;48.764;9.174;2024-01-27T01:33:11;5.30;99.90
674;DHT22;319;48.764;9.174;2024-01-27T01:35:38;5.30;99.90
674;DHT22;319;48.764;9.174;2024-01-27T01:38:05;5.20;99.90
674;DHT22;319;48.764;9.174;2024-01-27T01:40:34;5.20;99.90
674;DHT22;319;48.764;9.174;2024-01-27T01:43:09;5.20;99.90
674;DHT22;319;48.764;9.174;2024-01-27T01:45:36;5.20;99.90
674;DHT22;319;48.764;9.174;2024-01-27T01:48:04;5.10;99.90
674;DHT22;319;48.764;9.174;2024-01-27T01:50:32;5.10;99.90
674;DHT22;319;48.764;9.174;2024-01-27T01:52:59;5.10;99.90
674;DHT22;319;48.764;9.174;2024-01-27T01:55:26;5.10;99.90
674;DHT22;319;48.764;9.174;2024-01-27T01:57:53;5.00;99.90
674;DHT22;319;48.764;9.174;2024-01-27T02:00:19;5.00;99.90
674;DHT22;319;48.764;9.174;2024-01-27T02:02:47;4.90;99.90
674;DHT22;319;48.764;9.174;2024-01-27T02:05:14;4.90;99.90
674;DHT22;319;48.764;9.174;2024-01-27T02:07:42;4.90;99.90
674;DHT22;319;48.764;9.174;2024-01-27T02:10:37;4.90;99.90
674;DHT22;319;48.764;9.174;2024-01-27T02:13:12;4.90;99.90
674;DHT22;319;48.764;9.174;2024-01-27T02:15:42;4.90;99.90
674;DHT22;319;48.764;9.174;2024-01-27T02:18:09;4.80;99.90
674;DHT22;319;48.764;9.174;2024-01-27T02:20:35;4.80;99.90
674;DHT22;319;48.764;9.174;2024-01-27T02:23:04;4.80;99.90
674;DHT22;319;48.764;9.174;2024-01-27T02:25:32;4.80;99.90
674;DHT22;319;48.764;9.174;2024-01-27T02:27:59;4.80;99.90
674;DHT22;319;48.764;9.174;2024-01-27T02:30:26;4.70;99.90
674;DHT22;319;48.764;9.174;2024-01-27T02:32:53;4.80;99.90
674;DHT22;319;48.764;9.174;2024-01-27T02:35:20;4.70;99.90
674;DHT22;319;48.764;9.174;2024-01-27T02:37:47;4.70;99.90
674;DHT22;319;48.764;9.174;2024-01-27T02:40:13;4.70;99.90
674;DHT22;319;48.764;9.174;2024-01-27T02:42:42;4.70;99.90
674;DHT22;319;48.764;9.174;2024-01-27T02:45:09;4.70;99.90
674;DHT22;319;48.764;9.174;2024-01-27T02:47:36;4.60;99.90
674;DHT22;319;48.764;9.174;2024-01-27T02:50:04;4.60;99.90
674;DHT22;319;48.764;9.174;2024-01-27T02:52:31;4.60;99.90
674;DHT22;319;48.764;9.174;2024-01-27T02:54:58;4.60;99.90
674;DHT22;319;48.764;9.174;2024-01-27T02:57:25;4.60;99.90
674;DHT22;319;48.764;9.174;2024-01-27T02:59:53;4.60;99.90
674;DHT22;319;48.764;9.174;2024-01-27T03:02:20;4.50;99.90
674;DHT22;319;48.764;9.174;2024-01-27T03:04:46;4.60;99.90
674;DHT22;319;48.764;9.174;2024-01-27T03:07:13;4.50;99.90
674;DHT22;319;48.764;9.174;2024-01-27T03:09:40;4.60;99.90
674;DHT22;319;48.764;9.174;2024-01-27T03:12:07;4.60;99.90
674;DHT22;319;48.764;9.174;2024-01-27T03:14:34;4.60;99.90
674;DHT22;319;48.764;9.174;2024-01-27T03:17:02;4.60;99.90
674;DHT22;319;48.764;9.174;2024-01-27T03:19:29;4.50;99.90
674;DHT22;319;48.764;9.174;2024-01-27T03:21:56;4.50;99.90
674;DHT22;319;48.764;9.174;2024-01-27T03:24:22;4.50;99.90
674;DHT22;319;48.764;9.174;2024-01-27T03:26:49;4.40;99.90
674;DHT22;319;48.764;9.174;2024-01-27T03:29:16;4.40;99.90
674;DHT22;319;48.764;9.174;2024-01-27T03:31:43;4.40;99.90
674;DHT22;319;48.764;9.174;2024-01-27T03:34:11;4.40;99.90
674;DHT22;319;48.764;9.174;2024-01-27T03:36:38;4.30;99.90
674;DHT22;319;48.764;9.174;2024-01-27T03:39:05;4.40;99.90
674;DHT22;319;48.764;9.174;2024-01-27T03:41:33;4.40;99.90
674;DHT22;319;48.764;9.174;2024-01-27T03:44:00;4.30;99.90
674;DHT22;319;48.764;9.174;2024-01-27T03:46:26;4.30;99.90
674;DHT22;319;48.764;9.174;2024-01-27T03:48:53;4.20;99.90
674;DHT22;319;48.764;9.174;2024-01-27T03:51:21;4.20;99.90
674;DHT22;319;48.764;9.174;2024-01-27T03:53:48;4.30;99.90
674;DHT22;319;48.764;9.174;2024-01-27T03:56:15;4.30;99.90
674;DHT22;319;48.764;9.174;2024-01-27T03:58:42;4.30;99.90
674;DHT22;319;48.764;9.174;2024-01-27T04:01:08;4.30;99.90
674;DHT22;319;48.764;9.174;2024-01-27T04:03:35;4.30;99.90
674;DHT22;319;48.764;9.174;2024-01-27T04:06:02;4.30;99.90
674;DHT22;319;48.764;9.174;2024-01-27T04:08:31;4.30;99.90
674;DHT22;319;48.764;9.174;2024-01-27T04:10:57;4.30;99.90
674;DHT22;319;48.764;9.174;2024-01-27T04:13:24;4.30;99.90
674;DHT22;319;48.764;9.174;2024-01-27T04:15:51;4.30;99.90
674;DHT22;319;48.764;9.174;2024-01-27T04:18:19;4.30;99.90
674;DHT22;319;48.764;9.174;2024-01-27T04:20:46;4.30;99.90
674;DHT22;319;48.764;9.174;2024-01-27T04:23:14;4.20;99.90
674;DHT22;319;48.764;9.174;2024-01-27T04:25:42;4.20;99.90
674;DHT22;319;48.764;9.174;2024-01-27T04:28:09;4.20;99.90
674;DHT22;319;48.764;9.174;2024-01-27T04:30:38;4.20;99.90
674;DHT22;319;48.764;9.174;2024-01-27T04:33:05;4.20;99.90
674;DHT22;319;48.764;9.174;2024-01-27T04:35:33;4.20;99.90
674;DHT22;319;48.764;9.174;2024-01-27T04:37:59;4.10;99.90
674;DHT22;319;48.764;9.174;2024-01-27T04:40:26;4.20;99.90
674;DHT22;319;48.764;9.174;2024-01-27T04:42:54;4.20;99.90
674;DHT22;319;48.764;9.174;2024-01-27T04:45:21;4.20;99.90
674;DHT22;319;48.764;9.174;2024-01-27T04:47:48;4.20;99.90
674;DHT22;319;48.764;9.174;2024-01-27T04:50:15;4.20;99.90
674;DHT22;319;48.764;9.174;2024-01-27T04:52:42;4.20;99.90
674;DHT22;319;48.764;9.174;2024-01-27T04:55:08;4.10;99.90
674;DHT22;319;48.764;9.174;2024-01-27T04:57:35;4.20;99.90
674;DHT22;319;48.764;9.174;2024-01-27T05:00:04;4.20;99.90
674;DHT22;319;48.764;9.174;2024-01-27T05:02:35;4.20;99.90
674;DHT22;319;48.764;9.174;2024-01-27T05:05:02;4.20;99.90
674;DHT22;319;48.764;9.174;2024-01-27T05:07:29;4.10;99.90
674;DHT22;319;48.764;9.174;2024-01-27T05:09:56;4.10;99.90
674;DHT22;319;48.764;9.174;2024-01-27T05:12:23;4.10;99.90
674;DHT22;319;48.764;9.174;2024-01-27T05:14:50;4.10;99.90
674;DHT22;319;48.764;9.174;2024-01-27T05:17:18;4.10;99.90
674;DHT22;319;48.764;9.174;2024-01-27T05:19:44;4.00;99.90
674;DHT22;319;48.764;9.174;2024-01-27T05:22:11;4.00;99.90
674;DHT22;319;48.764;9.174;2024-01-27T05:24:38;4.00;99.90
674;DHT22;319;48.764;9.174;2024-01-27T05:27:05;4.00;99.90
674;DHT22;319;48.764;9.174;2024-01-27T05:29:31;4.00;99.90
674;DHT22;319;48.764;9.174;2024-01-27T05:31:58;4.00;99.90
674;DHT22;319;48.764;9.174;2024-01-27T05:34:26;3.90;99.90
674;DHT22;319;48.764;9.174;2024-01-27T05:36:53;3.90;99.90
674;DHT22;319;48.764;9.174;2024-01-27T05:39:19;3.80;99.90
674;DHT22;319;48.764;9.174;2024-01-27T05:41:46;3.80;99.90
674;DHT22;319;48.764;9.174;2024-01-27T05:44:13;3.70;99.90
674;DHT22;319;48.764;9.174;2024-01-27T05:46:40;3.70;99.90
674;DHT22;319;48.764;9.174;2024-01-27T05:49:06;3.70;99.90
674;DHT22;319;48.764;9.174;2024-01-27T05:51:34;3.70;99.90
674;DHT22;319;48.764;9.174;2024-01-27T05:54:01;3.70;99.90
674;DHT22;319;48.764;9.174;2024-01-27T05:56:28;3.70;99.90
674;DHT22;319;48.764;9.174;2024-01-27T05:58:55;3.70;99.90
674;DHT22;319;48.764;9.174;2024-01-27T06:01:22;3.70;99.90
674;DHT22;319;48.764;9.174;2024-01-27T06:03:48;3.70;99.90
674;DHT22;319;48.764;9.174;2024-01-27T06:06:15;3.70;99.90
674;DHT22;319;48.764;9.174;2024-01-27T06:08:43;3.70;99.90
674;DHT22;319;48.764;9.174;2024-01-27T06:11:10;3.70;99.90
674;DHT22;319;48.764;9.174;2024-01-27T06:13:37;3.70;99.90
674;DHT22;319;48.764;9.174;2024-01-27T06:16:07;3.70;99.90
674;DHT22;319;48.764;9.174;2024-01-27T06:18:34;3.70;99.90
674;DHT22;319;48.764;9.174;2024-01-27T06:21:03;3.70;99.90
674;DHT22;319;48.764;9.174;2024-01-27T06:23:29;3.60;99.90
674;DHT22;319;48.764;9.174;2024-01-27T06:25:57;3.60;99.90
674;DHT22;319;48.764;9.174;2024-01-27T06:28:30;3.60;99.90
674;DHT22;319;48.764;9.174;2024-01-27T06:31:00;3.50;99.90
674;DHT22;319;48.764;9.174;2024-01-27T06:33:26;3.50;99.90
674;DHT22;319;48.764;9.174;2024-01-27T06:35:52;3.50;99.90
674;DHT22;319;48.764;9.174;2024-01-27T06:38:19;3.50;99.90
674;DHT22;319;48.764;9.174;2024-01-27T06:40:46;3.50;99.90
674;DHT22;319;48.764;9.174;2024-01-27T06:43:14;3.50;99.90
674;DHT22;319;48.764;9.174;2024-01-27T06:45:40;3.60;99.90
674;DHT22;319;48.764;9.174;2024-01-27T06:48:07;3.50;99.90
674;DHT22;319;48.764;9.174;2024-01-27T06:50:34;3.50;99.90
674;DHT22;319;48.764;9.174;2024-01-27T06:53:00;3.50;99.90
674;DHT22;319;48.764;9.174;2024-01-27T06:55:27;3.50;99.90
674;DHT22;319;48.764;9.174;2024-01-27T06:57:54;3.50;99.90
674;DHT22;319;48.764;9.174;2024-01-27T07:00:22;3.50;99.90
674;DHT22;319;48.764;9.174;2024-01-27T07:02:49;3.50;99.90
674;DHT22;319;48.764;9.174;2024-01-27T07:05:16;3.50;99.90
674;DHT22;319;48.764;9.174;2024-01-27T07:07:43;3.50;99.90
674;DHT22;319;48.764;9.174;2024-01-27T07:10:10;3.50;99.90
674;DHT22;319;48.764;9.174;2024-01-27T07:12:36;3.50;99.90
674;DHT22;319;48.764;9.174;2024-01-27T07:15:03;3.50;99.90
674;DHT22;319;48.764;9.174;2024-01-27T07:17:32;3.60;99.90
674;DHT22;319;48.764;9.174;2024-01-27T07:19:58;3.60;99.90
674;DHT22;319;48.764;9.174;2024-01-27T07:22:25;3.60;99.90
674;DHT22;319;48.764;9.174;2024-01-27T07:24:52;3.60;99.90
674;DHT22;319;48.764;9.174;2024-01-27T07:27:19;3.60;99.90
674;DHT22;319;48.764;9.174;2024-01-27T07:29:46;3.60;99.90
674;DHT22;319;48.764;9.174;2024-01-27T07:32:12;3.60;99.90
674;DHT22;319;48.764;9.174;2024-01-27T07:34:42;3.60;99.90
674;DHT22;319;48.764;9.174;2024-01-27T07:37:09;3.60;99.90
674;DHT22;319;48.764;9.174;2024-01-27T07:39:36;3.60;99.90
674;DHT22;319;48.764;9.174;2024-01-27T07:42:03;3.60;99.90
674;DHT22;319;48.764;9.174;2024-01-27T07:44:31;3.60;99.90
674;DHT22;319;48.764;9.174;2024-01-27T07:46:58;3.70;99.90
674;DHT22;319;48.764;9.174;2024-01-27T07:49:25;3.70;99.90
674;DHT22;319;48.764;9.174;2024-01-27T07:51:53;3.70;99.90
674;DHT22;319;48.764;9.174;2024-01-27T07:54:20;3.70;99.90
674;DHT22;319;48.764;9.174;2024-01-27T07:56:48;3.70;99.90
674;DHT22;319;48.764;9.174;2024-01-27T07:59:15;3.80;99.90
674;DHT22;319;48.764;9.174;2024-01-27T08:01:42;3.70;99.90
674;DHT22;319;48.764;9.174;2024-01-27T08:04:09;3.70;99.90
674;DHT22;319;48.764;9.174;2024-01-27T08:06:46;3.70;99.90
674;DHT22;319;48.764;9.174;2024-01-27T08:09:15;3.70;99.90
674;DHT22;319;48.764;9.174;2024-01-27T08:11:42;3.70;99.90
674;DHT22;319;48.764;9.174;2024-01-27T08:14:09;3.70;99.90
674;DHT22;319;48.764;9.174;2024-01-27T08:16:36;3.80;99.90
674;DHT22;319;48.764;9.174;2024-01-27T08:19:03;3.80;99.90
674;DHT22;319;48.764;9.174;2024-01-27T08:21:30;3.80;99.90
674;DHT22;319;48.764;9.174;2024-01-27T08:23:57;3.80;99.90
674;DHT22;319;48.764;9.174;2024-01-27T08:26:25;3.80;99.90
674;DHT22;319;48.764;9.174;2024-01-27T08:28:52;3.90;99.90
674;DHT22;319;48.764;9.174;2024-01-27T08:31:19;4.00;99.90
674;DHT22;319;48.764;9.174;2024-01-27T08:33:46;4.00;99.90
674;DHT22;319;48.764;9.174;2024-01-27T08:36:13;4.20;99.90
674;DHT22;319;48.764;9.174;2024-01-27T08:38:40;4.30;99.90
674;DHT22;319;48.764;9.174;2024-01-27T08:41:10;4.50;99.90
674;DHT22;319;48.764;9.174;2024-01-27T08:43:38;4.60;99.90
674;DHT22;319;48.764;9.174;2024-01-27T08:46:06;4.70;99.90
674;DHT22;319;48.764;9.174;2024-01-27T08:48:36;4.80;99.90
674;DHT22;319;48.764;9.174;2024-01-27T08:51:03;5.00;99.90
674;DHT22;319;48.764;9.174;2024-01-27T08:53:30;5.20;99.90
674;DHT22;319;48.764;9.174;2024-01-27T08:56:21;5.40;99.90
674;DHT22;319;48.764;9.174;2024-01-27T08:59:17;5.50;99.90
674;DHT22;319;48.764;9.174;2024-01-27T09:01:47;5.80;99.90
674;DHT22;319;48.764;9.174;2024-01-27T09:04:14;6.20;99.90
674;DHT22;319;48.764;9.174;2024-01-27T09:06:56;6.20;99.90
674;DHT22;319;48.764;9.174;2024-01-27T09:09:24;6.40;99.90
674;DHT22;319;48.764;9.174;2024-01-27T09:11:57;7.80;99.90
674;DHT22;319;48.764;9.174;2024-01-27T09:14:34;7.20;99.90
674;DHT22;319;48.764;9.174;2024-01-27T09:17:08;7.10;99.90
674;DHT22;319;48.764;9.174;2024-01-27T09:19:38;7.10;99.90
674;DHT22;319;48.764;9.174;2024-01-27T09:22:05;7.70;99.90
674;DHT22;319;48.764;9.174;2024-01-27T09:24:33;7.30;99.90
674;DHT22;319;48.764;9.174;2024-01-27T09:27:07;6.70;99.80
674;DHT22;319;48.764;9.174;2024-01-27T09:29:37;8.10;99.90
674;DHT22;319;48.764;9.174;2024-01-27T09:32:10;8.60;99.90
674;DHT22;319;48.764;9.174;2024-01-27T09:35:10;8.40;99.90
674;DHT22;319;48.764;9.174;2024-01-27T09:38:37;7.30;99.40
674;DHT22;319;48.764;9.174;2024-01-27T09:41:39;7.40;99.10
674;DHT22;319;48.764;9.174;2024-01-27T09:44:59;7.50;99.00
674;DHT22;319;48.764;9.174;2024-01-27T09:47:51;7.60;98.60
674;DHT22;319;48.764;9.174;2024-01-27T09:50:33;9.20;99.80
674;DHT22;319;48.764;9.174;2024-01-27T09:53:30;8.00;99.00
674;DHT22;319;48.764;9.174;2024-01-27T09:56:04;8.40;98.40
674;DHT22;319;48.764;9.174;2024-01-27T09:58:32;8.00;97.90
674;DHT22;319;48.764;9.174;2024-01-27T10:01:03;8.70;98.90
674;DHT22;319;48.764;9.174;2024-01-27T10:03:39;8.70;98.60
674;DHT22;319;48.764;9.174;2024-01-27T10:06:16;8.10;97.60
674;DHT22;319;48.764;9.174;2024-01-27T10:08:55;8.30;97.50
674;DHT22;319;48.764;9.174;2024-01-27T10:11:23;8.40;97.20
674;DHT22;319;48.764;9.174;2024-01-27T10:13:54;9.70;98.80
674;DHT22;319;48.764;9.174;2024-01-27T10:16:25;8.10;97.70
674;DHT22;319;48.764;9.174;2024-01-27T10:19:01;8.50;98.30
674;DHT22;319;48.764;9.174;2024-01-27T10:21:48;8.70;97.60
674;DHT22;319;48.764;9.174;2024-01-27T10:24:42;10.10;97.30
674;DHT22;319;48.764;9.174;2024-01-27T10:34:21;9.20;96.40
674;DHT22;319;48.764;9.174;2024-01-27T10:36:47;8.80;96.10
674;DHT22;319;48.764;9.174;2024-01-27T10:39:18;8.80;95.90
674;DHT22;319;48.764;9.174;2024-01-27T10:41:46;8.90;95.70
674;DHT22;319;48.764;9.174;2024-01-27T10:44:14;8.90;95.40
674;DHT22;319;48.764;9.174;2024-01-27T10:46:43;9.00;95.40
674;DHT22;319;48.764;9.174;2024-01-27T10:49:12;9.00;95.20
674;DHT22;319;48.764;9.174;2024-01-27T10:51:43;9.10;95.00
674;DHT22;319;48.764;9.174;2024-01-27T10:54:14;9.20;94.90
674;DHT22;319;48.764;9.174;2024-01-27T10:56:42;9.20;94.60
674;DHT22;319;48.764;9.174;2024-01-27T10:59:11;9.30;94.60
674;DHT22;319;48.764;9.174;2024-01-27T11:01:39;9.30;94.80
674;DHT22;319;48.764;9.174;2024-01-27T11:04:06;9.30;94.30
674;DHT22;319;48.764;9.174;2024-01-27T11:06:36;9.30;94.40
674;DHT22;319;48.764;9.174;2024-01-27T11:09:05;9.30;94.60
674;DHT22;319;48.764;9.174;2024-01-27T11:11:34;9.20;94.80
674;DHT22;319;48.764;9.174;2024-01-27T11:14:02;9.00;95.10
674;DHT22;319;48.764;9.174;2024-01-27T11:16:29;8.90;95.10
674;DHT22;319;48.764;9.174;2024-01-27T11:18:56;8.90;95.00
674;DHT22;319;48.764;9.174;2024-01-27T11:21:23;8.80;95.20
674;DHT22;319;48.764;9.174;2024-01-27T11:23:50;8.80;95.30
674;DHT22;319;48.764;9.174;2024-01-27T11:26:22;8.80;95.30
674;DHT22;319;48.764;9.174;2024-01-27T11:28:51;8.70;95.10
674;DHT22;319;48.764;9.174;2024-01-27T11:31:19;8.80;95.50
674;DHT22;319;48.764;9.174;2024-01-27T11:33:47;8.80;95.30
674;DHT22;319;48.764;9.174;2024-01-27T11:36:21;8.80;95.50
674;DHT22;319;48.764;9.174;2024-01-27T11:38:49;8.90;95.50
674;DHT22;319;48.764;9.174;2024-01-27T11:41:30;8.90;95.40
674;DHT22;319;48.764;9.174;2024-01-27T11:43:59;8.90;95.80
674;DHT22;319;48.764;9.174;2024-01-27T11:46:26;8.90;95.70
674;DHT22;319;48.764;9.174;2024-01-27T11:48:53;9.00;95.60
674;DHT22;319;48.764;9.174;2024-01-27T11:51:20;9.10;95.50
674;DHT22;319;48.764;9.174;2024-01-27T11:53:48;9.20;95.30
674;DHT22;319;48.764;9.174;2024-01-27T11:56:15;9.20;95.00
674;DHT22;319;48.764;9.174;2024-01-27T11:58:48;9.20;95.00
674;DHT22;319;48.764;9.174;2024-01-27T12:01:15;9.10;95.00
674;DHT22;319;48.764;9.174;2024-01-27T12:03:42;9.20;95.20
674;DHT22;319;48.764;9.174;2024-01-27T12:06:09;9.30;95.00
674;DHT22;319;48.764;9.174;2024-01-27T12:08:36;9.30;95.00
674;DHT22;319;48.764;9.174;2024-01-27T12:11:03;9.30;94.50
674;DHT22;319;48.764;9.174;2024-01-27T12:13:30;9.30;94.60
674;DHT22;319;48.764;9.174;2024-01-27T12:15:58;9.40;94.60
674;DHT22;319;48.764;9.174;2024-01-27T12:18:25;9.40;94.50
674;DHT22;319;48.764;9.174;2024-01-27T12:20:55;9.40;94.60
674;DHT22;319;48.764;9.174;2024-01-27T12:23:23;9.40;94.60
674;DHT22;319;48.764;9.174;2024-01-27T12:25:53;9.40;94.20
674;DHT22;319;48.764;9.174;2024-01-27T12:28:22;9.40;93.70
674;DHT22;319;48.764;9.174;2024-01-27T12:30:50;9.40;93.80
674;DHT22;319;48.764;9.174;2024-01-27T12:33:20;9.50;93.70
674;DHT22;319;48.764;9.174;2024-01-27T12:35:50;9.50;93.50
674;DHT22;319;48.764;9.174;2024-01-27T12:38:17;9.50;93.60
674;DHT22;319;48.764;9.174;2024-01-27T12:40:44;9.60;93.90
674;DHT22;319;48.764;9.174;2024-01-27T12:43:11;9.60;93.50
674;DHT22;319;48.764;9.174;2024-01-27T12:45:38;9.60;93.50
674;DHT22;319;48.764;9.174;2024-01-27T12:48:07;9.40;93.10
674;DHT22;319;48.764;9.174;2024-01-27T12:50:35;9.30;93.00
674;DHT22;319;48.764;9.174;2024-01-27T12:53:02;9.40;93.00
674;DHT22;319;48.764;9.174;2024-01-27T12:55:29;9.30;93.00
674;DHT22;319;48.764;9.174;2024-01-27T12:57:55;9.30;93.00
674;DHT22;319;48.764;9.174;2024-01-27T13:00:23;9.30;93.00
674;DHT22;319;48.764;9.174;2024-01-27T13:02:49;9.40;92.90
674;DHT22;319;48.764;9.174;2024-01-27T13:05:16;9.30;92.80
674;DHT22;319;48.764;9.174;2024-01-27T13:07:44;9.30;92.60
674;DHT22;319;48.764;9.174;2024-01-27T13:10:11;9.40;92.50
674;DHT22;319;48.764;9.174;2024-01-27T13:12:38;9.50;92.30
674;DHT22;319;48.764;9.174;2024-01-27T13:15:05;9.60;92.00
674;DHT22;319;48.764;9.174;2024-01-27T13:17:32;9.60;91.50
674;DHT22;319;48.764;9.174;2024-01-27T13:19:59;9.60;91.10
674;DHT22;319;48.764;9.174;2024-01-27T13:22:25;9.60;90.80
674;DHT22;319;48.764;9.174;2024-01-27T13:24:54;9.60;90.90
674;DHT22;319;48.764;9.174;2024-01-27T13:27:22;9.70;90.90
674;DHT22;319;48.764;9.174;2024-01-27T13:29:49;9.70;90.90
674;DHT22;319;48.764;9.174;2024-01-27T13:32:16;9.70;90.70
674;DHT22;319;48.764;9.174;2024-01-27T13:34:43;9.70;89.90
674;DHT22;319;48.764;9.174;2024-01-27T13:37:10;9.70;87.90
674;DHT22;319;48.764;9.174;2024-01-27T13:39:37;9.70;87.00
674;DHT22;319;48.764;9.174;2024-01-27T13:42:05;9.60;85.40
674;DHT22;319;48.764;9.174;2024-01-27T13:44:32;9.60;85.20
674;DHT22;319;48.764;9.174;2024-01-27T13:47:01;9.60;84.80
674;DHT22;319;48.764;9.174;2024-01-27T13:49:28;9.60;84.80
674;DHT22;319;48.764;9.174;2024-01-27T13:51:54;9.60;84.30
674;DHT22;319;48.764;9.174;2024-01-27T13:54:21;9.70;83.70
674;DHT22;319;48.764;9.174;2024-01-27T13:56:48;9.70;83.70
674;DHT22;319;48.764;9.174;2024-01-27T13:59:16;9.70;84.00
674;DHT22;319;48.764;9.174;2024-01-27T14:01:43;9.60;84.30
674;DHT22;319;48.764;9.174;2024-01-27T14:04:10;9.60;84.80
674;DHT22;319;48.764;9.174;2024-01-27T14:06:36;9.60;85.00
674;DHT22;319;48.764;9.174;2024-01-27T14:09:03;9.60;85.40
674;DHT22;319;48.764;9.174;2024-01-27T14:11:32;9.70;86.50
674;DHT22;319;48.764;9.174;2024-01-27T14:13:59;9.70;87.40
674;DHT22;319;48.764;9.174;2024-01-27T14:16:27;9.70;87.40
674;DHT22;319;48.764;9.174;2024-01-27T14:18:54;9.60;86.60
674;DHT22;319;48.764;9.174;2024-01-27T14:21:22;9.60;85.50
674;DHT22;319;48.764;9.174;2024-01-27T14:23:49;9.60;84.80
674;DHT22;319;48.764;9.174;2024-01-27T14:26:16;9.50;85.60
674;DHT22;319;48.764;9.174;2024-01-27T14:28:45;9.50;85.60
674;DHT22;319;48.764;9.174;2024-01-27T14:31:12;9.50;86.00
674;DHT22;319;48.764;9.174;2024-01-27T14:33:40;9.50;86.20
674;DHT22;319;48.764;9.174;2024-01-27T14:36:07;9.50;87.50
674;DHT22;319;48.764;9.174;2024-01-27T14:38:34;9.50;89.00
674;DHT22;319;48.764;9.174;2024-01-27T14:41:01;9.50;89.90
674;DHT22;319;48.764;9.174;2024-01-27T14:43:28;9.50;90.50
674;DHT22;319;48.764;9.174;2024-01-27T14:45:55;9.40;91.00
674;DHT22;319;48.764;9.174;2024-01-27T14:48:22;9.30;91.30
674;DHT22;319;48.764;9.174;2024-01-27T14:50:50;9.30;91.70
674;DHT22;319;48.764;9.174;2024-01-27T14:53:22;9.30;91.90
674;DHT22;319;48.764;9.174;2024-01-27T14:55:49;9.30;92.20
674;DHT22;319;48.764;9.174;2024-01-27T14:58:16;9.30;92.40
674;DHT22;319;48.764;9.174;2024-01-27T15:00:43;9.20;92.50
674;DHT22;319;48.764;9.174;2024-01-27T15:03:10;9.30;92.60
674;DHT22;319;48.764;9.174;2024-01-27T15:05:37;9.20;92.70
674;DHT22;319;48.764;9.174;2024-01-27T15:08:07;9.30;92.80
674;DHT22;319;48.764;9.174;2024-01-27T15:10:34;9.20;92.90
674;DHT22;319;48.764;9.174;2024-01-27T15:13:01;9.20;93.00
674;DHT22;319;48.764;9.174;2024-01-27T15:15:28;9.20;93.00
674;DHT22;319;48.764;9.174;2024-01-27T15:17:55;9.30;92.90
674;DHT22;319;48.764;9.174;2024-01-27T15:20:26;9.30;92.90
674;DHT22;319;48.764;9.174;2024-01-27T15:22:53;9.20;92.90
674;DHT22;319;48.764;9.174;2024-01-27T15:25:27;9.20;93.00
674;DHT22;319;48.764;9.174;2024-01-27T15:27:54;9.20;92.90
674;DHT22;319;48.764;9.174;2024-01-27T15:30:21;9.20;93.00
674;DHT22;319;48.764;9.174;2024-01-27T15:32:47;9.20;93.00
674;DHT22;319;48.764;9.174;2024-01-27T15:35:15;9.20;93.10
674;DHT22;319;48.764;9.174;2024-01-27T15:37:41;9.10;93.20
674;DHT22;319;48.764;9.174;2024-01-27T15:40:09;9.10;93.40
674;DHT22;319;48.764;9.174;2024-01-27T15:42:37;9.00;93.20
674;DHT22;319;48.764;9.174;2024-01-27T15:45:05;8.90;93.70
674;DHT22;319;48.764;9.174;2024-01-27T15:47:32;8.80;94.00
674;DHT22;319;48.764;9.174;2024-01-27T15:49:58;8.70;94.10
674;DHT22;319;48.764;9.174;2024-01-27T15:52:29;8.60;94.40
674;DHT22;319;48.764;9.174;2024-01-27T15:54:56;8.30;94.70
674;DHT22;319;48.764;9.174;2024-01-27T15:57:23;8.20;95.10
674;DHT22;319;48.764;9.174;2024-01-27T15:59:52;8.10;95.50
674;DHT22;319;48.764;9.174;2024-01-27T16:02:19;8.00;95.80
674;DHT22;319;48.764;9.174;2024-01-27T16:04:45;7.90;96.00
674;DHT22;319;48.764;9.174;2024-01-27T16:07:12;7.90;96.10
674;DHT22;319;48.764;9.174;2024-01-27T16:09:39;7.80;96.10
674;DHT22;319;48.764;9.174;2024-01-27T16:12:10;7.70;96.20
674;DHT22;319;48.764;9.174;2024-01-27T16:14:37;7.40;96.60
674;DHT22;319;48.764;9.174;2024-01-27T16:17:05;7.30;97.10
674;DHT22;319;48.764;9.174;2024-01-27T16:19:32;7.30;97.30
674;DHT22;319;48.764;9.174;2024-01-27T16:21:59;7.30;97.50
674;DHT22;319;48.764;9.174;2024-01-27T16:24:26;7.30;97.60
674;DHT22;319;48.764;9.174;2024-01-27T16:26:52;7.30;97.50
674;DHT22;319;48.764;9.174;2024-01-27T16:29:19;7.30;97.20
674;DHT22;319;48.764;9.174;2024-01-27T16:31:46;7.20;97.50
674;DHT22;319;48.764;9.174;2024-01-27T16:34:14;7.20;97.50
674;DHT22;319;48.764;9.174;2024-01-27T16:36:41;7.20;97.50
674;DHT22;319;48.764;9.174;2024-01-27T16:39:08;7.20;97.60
674;DHT22;319;48.764;9.174;2024-01-27T16:41:35;7.10;97.60
674;DHT22;319;48.764;9.174;2024-01-27T16:44:02;7.10;97.50
674;DHT22;319;48.764;9.174;2024-01-27T16:46:29;7.00;97.50
674;DHT22;319;48.764;9.174;2024-01-27T16:48:56;7.00;97.60
674;DHT22;319;48.764;9.174;2024-01-27T16:51:24;7.00;97.70
674;DHT22;319;48.764;9.174;2024-01-27T16:53:51;7.00;97.90
674;DHT22;319;48.764;9.174;2024-01-27T16:56:18;6.90;98.00
674;DHT22;319;48.764;9.174;2024-01-27T16:58:45;6.90;98.20
674;DHT22;319;48.764;9.174;2024-01-27T17:01:15;6.80;98.30
674;DHT22;319;48.764;9.174;2024-01-27T17:03:42;6.80;98.50
674;DHT22;319;48.764;9.174;2024-01-27T17:06:09;6.70;98.70
674;DHT22;319;48.764;9.174;2024-01-27T17:08:37;6.70;98.90